• Join FlightAware (Why Join?)
  • Login
  • US Flag 
05:08AM EDT


 

Airport Tracker/Info


-or-


 

Live Flight TrackerFlight Track Log ✈ SWA641 ✈ 25-Apr-2013 ✈ KIAD - KMDW

Flight Track Log - Related Links

Times and Time Zones

All times are in EDT time to prevent confusion due to time zone crossing. See the SWA641 flight status page for this flight to view local times or setup timezone preferences in your user account.

Time Position Orientation Groundspeed Altitude Reporting Facility
EDT Latitude Longitude Course Direction KTS MPH feet Rate Location/Type
06:13AM 38.9333 -77.5333 288° West 196 226 3,500  Level Potomac TRACON
06:14AM 38.9167 -77.6167 256° West 257 296 5,500 3,960 Climbing Potomac TRACON
06:15AM 38.9053 -77.7122 261° West 272 313 11,400 4,320 Climbing Washington Center
06:16AM 38.9178 -77.8142 279° West 282 325 14,500 3,240 Climbing Washington Center
06:17AM 38.9283 -77.9292 277° West 310 357 17,900 3,360 Climbing Washington Center
06:18AM 38.9406 -78.0469 278° West 324 373 21,300 3,540 Climbing Washington Center
06:19AM 38.9183 -78.1063 288° West  Level FlightAware Approximate
06:19AM 38.9547 -78.1622 279° West 331 381 25,000  Level Washington Center
06:20AM 38.9625 -78.2800 275° West 336 387 27,000 1,200 Climbing Washington Center
06:21AM 38.9661 -78.4056 272° West 341 392 27,400 1,200 Climbing Washington Center
06:22AM 38.9711 -78.5339 273° West 353 406 29,400 2,220 Climbing Washington Center
06:23AM 38.9742 -78.6622 272° West 364 419 31,900 2,220 Climbing Washington Center
06:24AM 38.9792 -78.7933 273° West 369 425 33,900 1,740 Climbing Washington Center
06:25AM 38.9828 -78.8950 273° West 369 425 35,400 1,740 Climbing Washington Center
06:26AM 38.9867 -79.0500 272° West 369 425 37,400 1,620 Climbing Washington Center
06:27AM 38.9872 -79.1783 270° West 369 425 38,700 1,260 Climbing Washington Center
06:28AM 38.9917 -79.3039 273° West 364 419 40,000 600 Climbing Washington Center
06:29AM 38.9961 -79.4269 273° West 359 413 40,000  Level Washington Center
06:30AM 39.0044 -79.5531 275° West 354 407 40,000  Level Washington Center
06:31AM 39.0169 -79.6819 277° West 361 415 40,000  Level Washington Center
06:33AM 39.0311 -79.8769 275° West 359 413 40,000  Level Indianapolis Center
06:34AM 39.0411 -80.0011 276° West 359 413 40,000  Level Indianapolis Center
06:35AM 39.0528 -80.1431 276° West 358 412 40,000  Level Indianapolis Center
06:36AM 39.0636 -80.2703 276° West 358 412 40,000  Level Indianapolis Center
06:37AM 39.0758 -80.3972 277° West 358 412 40,000  Level Indianapolis Center
06:38AM 39.0953 -80.5206 282° West 358 412 40,000  Level Indianapolis Center
06:39AM 39.1450 -80.6378 299° West 372 428 40,000  Level Indianapolis Center
06:40AM 39.1956 -80.7550 299° West 373 429 40,000  Level Indianapolis Center
06:41AM 39.2467 -80.8714 300° West 374 430 40,000  Level Indianapolis Center
06:42AM 39.2983 -80.9906 299° West 379 436 40,000  Level Indianapolis Center
06:43AM 39.3494 -81.1083 299° West 380 437 40,000  Level Indianapolis Center
06:44AM 39.4000 -81.2289 299° West 382 440 40,000  Level Indianapolis Center
06:45AM 39.4503 -81.3486 299° West 380 437 40,000  Level Indianapolis Center
06:46AM 39.5008 -81.4672 299° West 378 435 40,000  Level Indianapolis Center
06:47AM 39.5514 -81.5872 299° West 380 437 40,000  Level Indianapolis Center
06:48AM 39.6106 -81.7311 298° West 379 436 40,000  Level Indianapolis Center
06:49AM 39.6617 -81.8508 299° West 380 437 40,000  Level Indianapolis Center
06:50AM 39.7089 -81.9650 298° West 379 436 40,000  Level Indianapolis Center
06:51AM 39.7594 -82.0858 299° West 378 435 40,000  Level Indianapolis Center
06:52AM 39.8094 -82.2092 298° West 381 438 40,000  Level Indianapolis Center
06:53AM 39.8600 -82.3311 298° West 381 438 40,000  Level Indianapolis Center
06:54AM 39.9108 -82.4544 298° West 383 441 40,000  Level Indianapolis Center
06:55AM 39.9606 -82.5794 297° West 385 443 40,000  Level Indianapolis Center
06:56AM 40.0111 -82.7022 298° West 383 441 40,000  Level Indianapolis Center
06:57AM 40.0611 -82.8269 298° West 385 443 40,000  Level Indianapolis Center
06:58AM 40.1119 -82.9500 298° West 384 442 40,000  Level Indianapolis Center
06:59AM 40.1614 -83.0736 298° West 385 443 40,000  Level Indianapolis Center
07:00AM 40.2097 -83.1978 297° West 382 440 40,000  Level Indianapolis Center
07:01AM 40.2600 -83.3206 298° West 383 441 40,000  Level Indianapolis Center
07:02AM 40.3172 -83.4653 297° West 383 441 40,000  Level Indianapolis Center
07:03AM 40.3658 -83.5906 297° West 385 443 40,000  Level Indianapolis Center
07:04AM 40.4161 -83.7175 298° West 389 448 40,000  Level Indianapolis Center
07:05AM 40.4650 -83.8433 297° West 387 445 40,000 -60 Level Indianapolis Center
07:06AM 40.5147 -83.9689 298° West 384 442 39,900 -600 Descending Indianapolis Center
07:07AM 40.5633 -84.0956 297° West 386 444 38,900 -960 Descending Indianapolis Center
07:09AM 40.6114 -84.2219 297° West 384 442 38,000 -960 Descending Indianapolis Center
07:10AM 40.6600 -84.3458 297° West 379 436 37,000 -1,020 Descending Indianapolis Center
07:11AM 40.7067 -84.4694 297° West 376 433 36,000 -1,020 Descending Indianapolis Center
07:12AM 40.7533 -84.5897 297° West 367 422 35,000 -960 Descending Indianapolis Center
07:13AM 40.7953 -84.6994 297° West 354 407 34,100 -1,080 Descending Chicago Center
07:14AM 40.8608 -84.8256 305° West 349 402 32,800 -1,140 Descending Chicago Center
07:15AM 40.9169 -84.9267 306° West 345 397 31,800 -960 Descending Chicago Center
07:16AM 40.9725 -85.0278 306° West 340 391 30,900 -900 Descending Chicago Center
07:17AM 41.0308 -85.1306 307° West 347 399 30,000 -1,380 Descending Chicago Center
07:18AM 41.0914 -85.2378 307° West 358 412 28,100 -1,500 Descending Chicago Center
07:19AM 41.1500 -85.3425 307° West 355 409 27,000 -1,080 Descending Chicago Center
07:20AM 41.2067 -85.4469 306° West 350 403 26,000 -1,020 Descending Chicago Center
07:21AM 41.2639 -85.5517 306° West 349 402 25,000 -1,080 Descending Chicago Center
07:22AM 41.3194 -85.6503 307° West 333 383 23,900 -1,080 Descending Chicago Center
07:23AM 41.3728 -85.7475 306° West 326 375 22,900 -1,020 Descending Chicago Center
07:24AM 41.4233 -85.8431 305° West 316 364 21,900 -1,320 Descending Chicago Center
07:25AM 41.4739 -85.9353 306° West 309 356 20,300 -1,860 Descending Chicago Center
07:26AM 41.5217 -86.0256 305° West 299 344 18,200 -2,040 Descending Chicago Center
07:27AM 41.5242 -86.1336 272° West 292 336 16,200 -2,280 Descending Chicago Center
07:28AM 41.5228 -86.2592 269° West 284 327 13,600 -2,340 Descending Chicago Center
07:29AM 41.5225 -86.3633 270° West 283 326 11,500 -1,680 Descending Chicago Center
07:30AM 41.5225 -86.4647 270° West 276 318 10,200 -1,080 Descending Chicago Center
07:31AM 41.5219 -86.5561 270° West 251 289 9,400 -900 Descending Chicago Center
07:32AM 41.5214 -86.6447 270° West 239 275 8,400 -1,020 Descending Chicago Center
07:33AM 41.5200 -86.7297 269° West 232 267 7,400 -1,020 Descending Chicago Center
07:34AM 41.5197 -86.8158 270° West 233 268 6,400 -660 Descending Chicago Center
07:35AM 41.5208 -86.9017 271° West 233 268 6,100 -180 Descending Chicago Center
07:36AM 41.5192 -87.0028 269° West 231 266 6,100 -60 Level Chicago Center
07:37AM 41.5175 -87.0858 268° West 228 262 6,000 -60 Descending Chicago Center
07:38AM 41.5167 -87.1667 269° West 232 267 6,000 -420 Level Chicago TRACON
07:39AM 41.5500 -87.2167 312° West 231 266 5,300 -960 Descending Chicago TRACON
07:40AM 41.5667 -87.3167 283° West 230 265 4,100 -600 Descending Chicago TRACON
07:41AM 41.5833 -87.4000 285° West 226 260 4,100 -120 Level Chicago TRACON
07:41AM 41.5939 -87.4047 342° North 228 262 4,000 -180 Descending Chicago Center
07:42AM 41.6153 -87.4828 290° West 225 259 3,900 -60 Descending Chicago Center
07:43AM 41.6433 -87.5528 298° West 200 230 3,900 -180 Level Chicago Center
07:44AM 41.6744 -87.5989 312° West 181 208 3,600 -540 Descending Chicago Center
07:45AM 41.7000 -87.6333 315° West 152 175 3,000 -840 Descending Chicago TRACON
07:46AM 41.7167 -87.6667 304° West 137 158 2,300 -720 Descending Chicago TRACON
07:47AM 41.7500 -87.7000 323° Northwest 128 147 1,700 -720 Descending Chicago TRACON
07:48AM 41.7667 -87.7333 304° West 117 135 900 -780 Descending Chicago TRACON
07:50AM 41.7833 -87.7500 340° North  Level FlightAware Approximate